sensor_id;sensor_type;location;lat;lon;timestamp;pressure;altitude;pressure_sealevel;temperature;humidity
9325;BME280;4701;51.566;6.776;2023-03-18T12:17:54;100732.84;;;18.13;65.08
9325;BME280;4701;51.566;6.776;2023-03-18T12:21:36;100729.25;;;19.09;62.69
9325;BME280;4701;51.566;6.776;2023-03-18T12:24:55;100736.56;;;19.74;60.59
9325;BME280;4701;51.566;6.776;2023-03-18T12:28:07;100729.97;;;20.13;59.31
9325;BME280;4701;51.566;6.776;2023-03-18T12:31:29;100733.44;;;20.48;58.17
9325;BME280;4701;51.566;6.776;2023-03-18T12:34:49;100733.84;;;20.67;57.42
9325;BME280;4701;51.566;6.776;2023-03-18T12:38:14;100726.75;;;20.78;57.09
9325;BME280;4701;51.566;6.776;2023-03-18T12:41:29;100731.41;;;20.86;56.88
9325;BME280;4701;51.566;6.776;2023-03-18T12:44:54;100731.56;;;20.90;56.66
9325;BME280;4701;51.566;6.776;2023-03-18T12:47:59;100729.72;;;20.94;56.52
9325;BME280;4701;51.566;6.776;2023-03-18T12:51:07;100729.88;;;20.97;56.29
9325;BME280;4701;51.566;6.776;2023-03-18T12:54:17;100723.69;;;21.00;56.22
9325;BME280;4701;51.566;6.776;2023-03-18T12:57:27;100715.38;;;21.00;56.12
9325;BME280;4701;51.566;6.776;2023-03-18T13:00:33;100716.03;;;20.97;56.23
9325;BME280;4701;51.566;6.776;2023-03-18T13:03:41;100705.94;;;20.93;56.38
9325;BME280;4701;51.566;6.776;2023-03-18T13:06:46;100708.09;;;20.87;56.38
9325;BME280;4701;51.566;6.776;2023-03-18T13:09:57;100717.06;;;20.84;56.67
9325;BME280;4701;51.566;6.776;2023-03-18T13:13:06;100708.16;;;20.78;56.88
9325;BME280;4701;51.566;6.776;2023-03-18T13:16:10;100711.13;;;20.73;57.05
9325;BME280;4701;51.566;6.776;2023-03-18T13:19:14;100711.81;;;20.70;57.41
9325;BME280;4701;51.566;6.776;2023-03-18T13:22:43;100707.72;;;20.68;57.63
9325;BME280;4701;51.566;6.776;2023-03-18T13:25:59;100710.88;;;20.66;57.85
9325;BME280;4701;51.566;6.776;2023-03-18T13:29:14;100703.22;;;20.63;57.73
9325;BME280;4701;51.566;6.776;2023-03-18T13:32:39;100702.25;;;20.59;57.64
9325;BME280;4701;51.566;6.776;2023-03-18T13:36:00;100705.38;;;20.58;57.72
9325;BME280;4701;51.566;6.776;2023-03-18T13:39:30;100699.69;;;20.54;57.63
9325;BME280;4701;51.566;6.776;2023-03-18T13:42:39;100694.34;;;20.49;57.48
9325;BME280;4701;51.566;6.776;2023-03-18T13:45:44;100695.81;;;20.47;57.84
9325;BME280;4701;51.566;6.776;2023-03-18T13:48:53;100686.69;;;20.46;58.11
9325;BME280;4701;51.566;6.776;2023-03-18T13:51:57;100689.63;;;20.50;58.41
9325;BME280;4701;51.566;6.776;2023-03-18T13:55:03;100689.91;;;20.57;58.68
9325;BME280;4701;51.566;6.776;2023-03-18T13:58:18;100692.78;;;20.60;59.12
9325;BME280;4701;51.566;6.776;2023-03-18T14:01:29;100683.00;;;20.63;58.36
9325;BME280;4701;51.566;6.776;2023-03-18T14:04:49;100691.81;;;20.65;57.41
9325;BME280;4701;51.566;6.776;2023-03-18T14:07:54;100684.16;;;20.62;55.93
9325;BME280;4701;51.566;6.776;2023-03-18T14:14:56;100695.91;;;20.59;56.40
9325;BME280;4701;51.566;6.776;2023-03-18T14:17:58;100717.25;;;20.58;57.95
9325;BME280;4701;51.566;6.776;2023-03-18T14:21:00;100732.56;;;20.56;58.08
9325;BME280;4701;51.566;6.776;2023-03-18T14:24:11;100739.59;;;20.53;58.19
9325;BME280;4701;51.566;6.776;2023-03-18T14:27:16;100722.97;;;20.53;57.71
9325;BME280;4701;51.566;6.776;2023-03-18T14:30:41;100721.84;;;20.54;57.43
9325;BME280;4701;51.566;6.776;2023-03-18T14:33:57;100711.72;;;20.58;57.19
9325;BME280;4701;51.566;6.776;2023-03-18T14:37:32;100708.59;;;20.60;57.33
9325;BME280;4701;51.566;6.776;2023-03-18T14:40:36;100718.53;;;20.61;57.50
9325;BME280;4701;51.566;6.776;2023-03-18T14:43:45;100717.53;;;20.65;57.81
9325;BME280;4701;51.566;6.776;2023-03-18T14:46:56;100715.72;;;20.69;57.59
9325;BME280;4701;51.566;6.776;2023-03-18T14:50:01;100719.44;;;20.73;57.82
9325;BME280;4701;51.566;6.776;2023-03-18T14:53:10;100718.31;;;20.74;57.76
9325;BME280;4701;51.566;6.776;2023-03-18T14:56:19;100712.28;;;20.72;57.67
9325;BME280;4701;51.566;6.776;2023-03-18T14:59:23;100705.59;;;20.73;57.47
9325;BME280;4701;51.566;6.776;2023-03-18T15:02:31;100703.31;;;20.75;57.56
9325;BME280;4701;51.566;6.776;2023-03-18T15:05:36;100707.69;;;20.76;57.37
9325;BME280;4701;51.566;6.776;2023-03-18T15:08:47;100708.97;;;20.79;57.58
9325;BME280;4701;51.566;6.776;2023-03-18T15:11:50;100700.19;;;20.77;57.81
9325;BME280;4701;51.566;6.776;2023-03-18T15:14:53;100701.31;;;20.76;58.07
9325;BME280;4701;51.566;6.776;2023-03-18T15:17:59;100693.72;;;20.73;58.30
9325;BME280;4701;51.566;6.776;2023-03-18T15:21:06;100694.38;;;20.70;58.55
9325;BME280;4701;51.566;6.776;2023-03-18T15:24:11;100689.16;;;20.68;58.84
9325;BME280;4701;51.566;6.776;2023-03-18T15:27:18;100688.81;;;20.70;58.83
9325;BME280;4701;51.566;6.776;2023-03-18T15:30:25;100698.44;;;20.72;58.89
9325;BME280;4701;51.566;6.776;2023-03-18T15:33:33;100687.84;;;20.74;59.10
9325;BME280;4701;51.566;6.776;2023-03-18T15:36:40;100689.09;;;20.77;58.94
9325;BME280;4701;51.566;6.776;2023-03-18T15:39:42;100688.28;;;20.76;58.99
9325;BME280;4701;51.566;6.776;2023-03-18T15:42:45;100684.72;;;20.76;59.08
9325;BME280;4701;51.566;6.776;2023-03-18T15:45:52;100683.44;;;20.73;59.04
9325;BME280;4701;51.566;6.776;2023-03-18T15:48:56;100677.41;;;20.71;59.19
9325;BME280;4701;51.566;6.776;2023-03-18T15:52:01;100677.75;;;20.70;59.39
9325;BME280;4701;51.566;6.776;2023-03-18T15:55:24;100681.81;;;20.72;59.42
9325;BME280;4701;51.566;6.776;2023-03-18T15:58:34;100686.22;;;20.73;59.81
9325;BME280;4701;51.566;6.776;2023-03-18T16:01:36;100680.78;;;20.77;59.85
9325;BME280;4701;51.566;6.776;2023-03-18T16:04:41;100680.47;;;20.78;60.15
9325;BME280;4701;51.566;6.776;2023-03-18T16:07:44;100684.53;;;20.81;60.43
9325;BME280;4701;51.566;6.776;2023-03-18T16:10:47;100680.94;;;20.81;60.55
9325;BME280;4701;51.566;6.776;2023-03-18T16:13:49;100682.09;;;20.80;60.75
9325;BME280;4701;51.566;6.776;2023-03-18T16:16:51;100678.19;;;20.81;61.00
9325;BME280;4701;51.566;6.776;2023-03-18T16:19:55;100692.03;;;20.81;61.23
9325;BME280;4701;51.566;6.776;2023-03-18T16:22:57;100691.22;;;20.80;61.55
9325;BME280;4701;51.566;6.776;2023-03-18T16:25:59;100696.75;;;20.80;61.64
9325;BME280;4701;51.566;6.776;2023-03-18T16:29:01;100695.47;;;20.77;61.83
9325;BME280;4701;51.566;6.776;2023-03-18T16:32:10;100697.28;;;20.73;61.92
9325;BME280;4701;51.566;6.776;2023-03-18T16:35:19;100691.94;;;20.68;62.09
9325;BME280;4701;51.566;6.776;2023-03-18T16:40:12;100689.84;;;20.65;61.87
9325;BME280;4701;51.566;6.776;2023-03-18T16:59:48;100689.72;;;20.24;61.22
9325;BME280;4701;51.566;6.776;2023-03-18T17:02:52;100704.00;;;20.26;61.95
9325;BME280;4701;51.566;6.776;2023-03-18T17:05:56;100699.13;;;20.31;62.01
9325;BME280;4701;51.566;6.776;2023-03-18T17:09:01;100691.47;;;20.37;62.18
9325;BME280;4701;51.566;6.776;2023-03-18T17:12:04;100698.97;;;20.36;61.99
9325;BME280;4701;51.566;6.776;2023-03-18T17:15:10;100704.50;;;20.36;62.52
9325;BME280;4701;51.566;6.776;2023-03-18T17:18:16;100703.84;;;20.39;62.93
9325;BME280;4701;51.566;6.776;2023-03-18T17:21:18;100711.81;;;20.41;62.94
9325;BME280;4701;51.566;6.776;2023-03-18T17:24:20;100701.19;;;20.43;62.92
9325;BME280;4701;51.566;6.776;2023-03-18T17:27:25;100707.22;;;20.45;62.78
9325;BME280;4701;51.566;6.776;2023-03-18T17:30:31;100716.00;;;20.47;62.71
9325;BME280;4701;51.566;6.776;2023-03-18T17:33:34;100704.44;;;20.45;62.69
9325;BME280;4701;51.566;6.776;2023-03-18T17:36:37;100716.34;;;20.46;62.74
9325;BME280;4701;51.566;6.776;2023-03-18T17:39:38;100713.56;;;20.46;62.81
9325;BME280;4701;51.566;6.776;2023-03-18T17:42:40;100713.25;;;20.47;62.75
9325;BME280;4701;51.566;6.776;2023-03-18T17:45:43;100703.47;;;20.50;62.79
9325;BME280;4701;51.566;6.776;2023-03-18T17:48:46;100703.59;;;20.53;62.58
9325;BME280;4701;51.566;6.776;2023-03-18T17:51:48;100708.47;;;20.56;62.39
9325;BME280;4701;51.566;6.776;2023-03-18T17:54:50;100701.78;;;20.57;62.56
9325;BME280;4701;51.566;6.776;2023-03-18T17:57:52;100704.56;;;20.57;62.55
9325;BME280;4701;51.566;6.776;2023-03-18T18:00:57;100713.69;;;20.58;62.62
9325;BME280;4701;51.566;6.776;2023-03-18T18:04:00;100711.25;;;20.56;62.76
9325;BME280;4701;51.566;6.776;2023-03-18T18:07:14;100711.91;;;20.53;62.92
9325;BME280;4701;51.566;6.776;2023-03-18T18:10:18;100713.03;;;20.52;62.92
9325;BME280;4701;51.566;6.776;2023-03-18T18:13:21;100722.97;;;20.53;63.04
9325;BME280;4701;51.566;6.776;2023-03-18T18:16:25;100715.47;;;20.54;63.13
9325;BME280;4701;51.566;6.776;2023-03-18T18:19:27;100716.28;;;20.54;63.14
9325;BME280;4701;51.566;6.776;2023-03-18T18:22:28;100725.09;;;20.56;63.07
9325;BME280;4701;51.566;6.776;2023-03-18T18:25:30;100723.59;;;20.59;63.00
9325;BME280;4701;51.566;6.776;2023-03-18T18:28:33;100720.81;;;20.59;63.04
9325;BME280;4701;51.566;6.776;2023-03-18T18:31:37;100726.34;;;20.59;63.03
9325;BME280;4701;51.566;6.776;2023-03-18T18:34:38;100723.59;;;20.59;62.96
9325;BME280;4701;51.566;6.776;2023-03-18T18:37:41;100724.41;;;20.59;63.09
9325;BME280;4701;51.566;6.776;2023-03-18T18:40:42;100722.81;;;20.58;62.97
9325;BME280;4701;51.566;6.776;2023-03-18T18:43:45;100722.31;;;20.56;63.14
9325;BME280;4701;51.566;6.776;2023-03-18T18:46:48;100733.06;;;20.58;63.45
9325;BME280;4701;51.566;6.776;2023-03-18T18:49:50;100734.81;;;20.62;63.73
9325;BME280;4701;51.566;6.776;2023-03-18T18:52:53;100738.56;;;20.66;63.57
9325;BME280;4701;51.566;6.776;2023-03-18T18:55:56;100736.25;;;20.68;63.58
9325;BME280;4701;51.566;6.776;2023-03-18T18:59:00;100738.69;;;20.70;63.43
9325;BME280;4701;51.566;6.776;2023-03-18T19:02:23;100739.50;;;20.70;63.53
9325;BME280;4701;51.566;6.776;2023-03-18T19:05:28;100743.72;;;20.68;63.89
9325;BME280;4701;51.566;6.776;2023-03-18T19:08:32;100739.38;;;20.67;63.95
9325;BME280;4701;51.566;6.776;2023-03-18T19:11:35;100738.06;;;20.64;63.92
9325;BME280;4701;51.566;6.776;2023-03-18T19:14:37;100741.97;;;20.63;64.07
9325;BME280;4701;51.566;6.776;2023-03-18T19:17:40;100742.78;;;20.64;63.97
9325;BME280;4701;51.566;6.776;2023-03-18T19:20:42;100740.34;;;20.62;64.05
9325;BME280;4701;51.566;6.776;2023-03-18T19:23:44;100747.03;;;20.61;64.06
9325;BME280;4701;51.566;6.776;2023-03-18T19:26:46;100747.38;;;20.60;64.20
9325;BME280;4701;51.566;6.776;2023-03-18T19:29:49;100752.09;;;20.59;64.28
9325;BME280;4701;51.566;6.776;2023-03-18T19:32:52;100750.13;;;20.60;64.30
9325;BME280;4701;51.566;6.776;2023-03-18T19:35:54;100754.84;;;20.59;64.30
9325;BME280;4701;51.566;6.776;2023-03-18T19:38:57;100754.03;;;20.59;64.27
9325;BME280;4701;51.566;6.776;2023-03-18T19:41:59;100754.72;;;20.56;64.21
9325;BME280;4701;51.566;6.776;2023-03-18T19:45:01;100755.38;;;20.53;64.36
9325;BME280;4701;51.566;6.776;2023-03-18T19:48:04;100761.94;;;20.48;64.36
